createdAt,value
2022-08-29T00:04:28.459Z,2.50
2022-08-29T00:09:37.497Z,2.30
2022-08-29T00:14:43.236Z,2.53
2022-08-29T00:19:50.088Z,2.67
2022-08-29T00:24:55.681Z,2.47
2022-08-29T00:30:02.367Z,2.40
2022-08-29T00:35:12.561Z,2.28
2022-08-29T00:40:21.363Z,2.35
2022-08-29T00:45:27.284Z,2.58
2022-08-29T00:50:37.469Z,2.05
2022-08-29T00:55:43.502Z,2.03
2022-08-29T01:00:57.458Z,2.47
2022-08-29T01:06:05.840Z,2.25
2022-08-29T01:11:29.811Z,2.30
2022-08-29T01:16:37.537Z,2.97
2022-08-29T01:21:49.663Z,3.43
2022-08-29T01:26:57.891Z,2.95
2022-08-29T01:32:03.293Z,3.08
2022-08-29T01:37:10.706Z,3.45
2022-08-29T01:42:20.827Z,2.97
2022-08-29T01:47:28.983Z,3.30
2022-08-29T01:52:34.364Z,3.63
2022-08-29T01:57:42.104Z,3.78
2022-08-29T02:02:47.551Z,3.72
2022-08-29T02:07:53.405Z,4.10
2022-08-29T02:13:00.689Z,2.90
2022-08-29T02:18:06.381Z,4.93
2022-08-29T02:23:29.944Z,4.07
2022-08-29T02:28:38.688Z,4.13
2022-08-29T02:33:44.174Z,3.53
2022-08-29T02:38:50.171Z,4.65
2022-08-29T02:43:57.174Z,5.30
2022-08-29T02:49:02.676Z,4.70
2022-08-29T02:54:08.123Z,5.20
2022-08-29T02:59:15.657Z,4.70
2022-08-29T03:04:21.025Z,4.97
2022-08-29T03:09:26.420Z,4.43
2022-08-29T03:14:33.808Z,4.20
2022-08-29T03:19:39.788Z,4.20
2022-08-29T03:24:45.215Z,4.90
2022-08-29T03:29:52.285Z,5.00
2022-08-29T03:34:57.973Z,4.18
2022-08-29T03:40:03.623Z,2.58
2022-08-29T03:45:14.359Z,1.95
2022-08-29T03:50:20.428Z,1.92
2022-08-29T03:55:26.662Z,1.50
2022-08-29T04:00:33.976Z,1.40
2022-08-29T04:05:39.474Z,1.60
2022-08-29T04:10:45.083Z,1.70
2022-08-29T04:15:52.428Z,1.52
2022-08-29T04:21:03.564Z,1.42
2022-08-29T04:26:35.900Z,1.30
2022-08-29T04:31:44.780Z,1.50
2022-08-29T04:36:50.457Z,2.00
2022-08-29T04:41:57.875Z,1.60
2022-08-29T04:47:05.124Z,1.58
2022-08-29T04:52:14.212Z,2.00
2022-08-29T04:57:19.994Z,1.70
2022-08-29T05:02:27.671Z,1.75
2022-08-29T05:07:38.231Z,2.05
2022-08-29T05:12:44.685Z,1.98
2022-08-29T05:17:51.802Z,2.13
2022-08-29T05:22:57.682Z,2.25
2022-08-29T05:28:04.841Z,2.38
2022-08-29T05:33:11.910Z,2.83
2022-08-29T05:38:18.106Z,2.75
2022-08-29T05:43:23.541Z,2.80
2022-08-29T05:48:32.708Z,2.72
2022-08-29T05:53:38.469Z,3.03
2022-08-29T05:58:44.125Z,3.47
2022-08-29T06:03:51.295Z,3.03
2022-08-29T06:08:59.529Z,3.38
2022-08-29T06:14:05.352Z,3.00
2022-08-29T06:19:12.531Z,3.60
2022-08-29T06:24:18.694Z,3.20
2022-08-29T06:29:24.285Z,3.42
2022-08-29T06:34:31.418Z,3.45
2022-08-29T06:39:37.073Z,3.13
2022-08-29T06:44:44.487Z,2.78
2022-08-29T06:49:53.033Z,2.03
2022-08-29T06:54:58.870Z,2.70
2022-08-29T07:00:21.737Z,2.90
2022-08-29T07:05:29.874Z,2.50
2022-08-29T07:10:35.476Z,3.58
2022-08-29T07:15:41.232Z,2.33
2022-08-29T07:20:48.498Z,2.60
2022-08-29T07:25:55.551Z,2.60
2022-08-29T07:31:01.279Z,2.35
2022-08-29T07:36:08.983Z,2.50
2022-08-29T07:41:15.753Z,2.70
2022-08-29T07:46:22.550Z,2.10
2022-08-29T07:51:30.121Z,2.30
2022-08-29T07:56:40.538Z,2.22
2022-08-29T08:01:46.255Z,1.83
2022-08-29T08:06:53.254Z,2.10
2022-08-29T08:11:59.196Z,2.28
2022-08-29T08:17:05.317Z,1.80
2022-08-29T08:22:13.104Z,1.90
2022-08-29T08:27:19.765Z,2.23
2022-08-29T08:32:32.386Z,2.00
2022-08-29T08:37:40.052Z,2.10
2022-08-29T08:42:46.496Z,2.75
2022-08-29T08:47:54.212Z,2.53
2022-08-29T08:53:07.511Z,3.40
2022-08-29T08:58:29.039Z,2.53
2022-08-29T09:04:05.615Z,1.88
2022-08-29T09:09:19.660Z,2.45
2022-08-29T09:14:37.168Z,2.45
2022-08-29T09:19:43.155Z,2.67
2022-08-29T09:24:55.176Z,2.55
2022-08-29T09:30:06.858Z,2.70
2022-08-29T09:35:24.709Z,1.88
2022-08-29T09:40:48.538Z,2.50
2022-08-29T09:46:10.234Z,2.10
2022-08-29T09:51:22.530Z,1.60
2022-08-29T09:56:29.892Z,1.33
2022-08-29T10:01:36.753Z,1.70
2022-08-29T10:06:47.266Z,1.90
2022-08-29T10:12:01.255Z,1.50
2022-08-29T10:17:38.050Z,1.70
2022-08-29T10:22:47.900Z,2.03
2022-08-29T10:27:59.023Z,1.50
2022-08-29T10:33:20.288Z,1.80
2022-08-29T10:38:39.326Z,1.95
2022-08-29T10:43:52.555Z,1.63
2022-08-29T10:49:03.653Z,1.88
2022-08-29T10:54:18.581Z,1.38
2022-08-29T10:59:30.326Z,2.08
2022-08-29T11:04:39.206Z,1.45
2022-08-29T11:09:47.924Z,1.98
2022-08-29T11:15:00.216Z,1.60
2022-08-29T11:20:11.946Z,1.90
2022-08-29T11:25:20.550Z,1.67
2022-08-29T11:30:36.367Z,1.60
2022-08-29T11:35:50.533Z,1.50
2022-08-29T11:41:28.695Z,1.45
2022-08-29T11:46:53.266Z,1.30
2022-08-29T11:52:16.672Z,1.45
2022-08-29T11:57:52.645Z,1.83
2022-08-29T12:02:59.825Z,2.15
2022-08-29T12:08:33.650Z,1.83
2022-08-29T12:14:04.686Z,1.55
2022-08-29T12:19:12.222Z,1.42
2022-08-29T12:24:41.860Z,1.65
2022-08-29T12:29:47.433Z,1.58
2022-08-29T12:35:18.046Z,1.30
2022-08-29T12:45:44.711Z,1.10
2022-08-29T12:50:51.992Z,0.90
2022-08-29T12:55:59.321Z,1.40
2022-08-29T13:01:07.522Z,1.13
2022-08-29T13:11:22.547Z,1.10
2022-08-29T13:16:31.402Z,1.40
2022-08-29T13:21:39.686Z,1.20
2022-08-29T13:27:04.669Z,1.10
2022-08-29T13:32:24.319Z,1.30
2022-08-29T13:37:34.423Z,1.00
2022-08-29T13:42:46.150Z,1.25
2022-08-29T13:48:04.790Z,1.10
2022-08-29T13:58:18.607Z,0.80
2022-08-29T14:03:25.076Z,1.10
2022-08-29T14:08:32.874Z,1.10
2022-08-29T14:13:38.882Z,1.10
2022-08-29T14:18:44.520Z,1.10
2022-08-29T14:23:51.977Z,1.30
2022-08-29T14:29:03.397Z,1.05
2022-08-29T14:34:10.074Z,1.42
2022-08-29T14:39:18.289Z,1.27
2022-08-29T14:44:23.809Z,1.15
2022-08-29T14:49:29.591Z,1.27
2022-08-29T14:54:36.915Z,0.95
2022-08-29T14:59:43.040Z,1.23
2022-08-29T15:04:51.304Z,2.67
2022-08-29T15:09:58.433Z,1.20
2022-08-29T15:15:04.375Z,1.15
2022-08-29T15:20:35.348Z,1.20
2022-08-29T15:25:38.901Z,1.33
2022-08-29T15:30:50.936Z,1.40
2022-08-29T15:35:56.772Z,0.90
2022-08-29T15:41:03.710Z,1.15
2022-08-29T15:46:09.632Z,0.90
2022-08-29T15:51:16.179Z,1.02
2022-08-29T15:56:23.308Z,1.00
2022-08-29T16:06:37.020Z,0.90
2022-08-29T16:11:44.688Z,1.42
2022-08-29T16:16:50.434Z,1.13
2022-08-29T16:22:00.173Z,0.98
2022-08-29T16:27:07.642Z,1.00
2022-08-29T16:32:14.418Z,0.95
2022-08-29T16:37:20.106Z,1.20
2022-08-29T16:42:30.426Z,1.10
2022-08-29T16:47:37.815Z,0.90
2022-08-29T16:52:44.348Z,1.30
2022-08-29T16:58:05.018Z,1.38
2022-08-29T17:03:10.915Z,1.20
2022-08-29T17:08:15.327Z,1.17
2022-08-29T17:13:21.331Z,1.40
2022-08-29T17:18:26.960Z,1.20
2022-08-29T17:23:35.978Z,0.93
2022-08-29T17:28:43.002Z,1.23
2022-08-29T17:33:48.597Z,0.90
2022-08-29T17:38:54.239Z,1.00
2022-08-29T17:44:01.562Z,0.98
2022-08-29T17:49:10.595Z,1.02
2022-08-29T17:54:16.183Z,0.82
2022-08-29T17:59:27.470Z,1.40
2022-08-29T18:04:33.279Z,1.20
2022-08-29T18:09:39.437Z,2.28
2022-08-29T18:14:47.658Z,1.73
2022-08-29T18:19:54.809Z,1.63
2022-08-29T18:25:01.744Z,1.50
2022-08-29T18:30:13.821Z,2.10
2022-08-29T18:35:21.077Z,2.33
2022-08-29T18:40:27.675Z,2.53
2022-08-29T18:45:36.575Z,4.13
2022-08-29T18:50:43.003Z,2.00
2022-08-29T18:55:53.387Z,2.05
2022-08-29T19:01:11.197Z,1.60
2022-08-29T19:06:17.488Z,1.60
2022-08-29T19:11:23.442Z,1.27
2022-08-29T19:16:32.899Z,1.35
2022-08-29T19:21:38.890Z,1.20
2022-08-29T19:26:46.452Z,1.40
2022-08-29T19:31:54.053Z,1.27
2022-08-29T19:37:05.699Z,1.45
2022-08-29T19:42:16.898Z,1.95
2022-08-29T19:47:24.411Z,1.52
2022-08-29T19:52:32.802Z,1.30
2022-08-29T19:57:39.763Z,1.88
2022-08-29T20:02:47.428Z,1.45
2022-08-29T20:07:53.547Z,1.40
2022-08-29T20:13:00.052Z,2.08
2022-08-29T20:18:08.417Z,1.70
2022-08-29T20:23:16.981Z,2.05
2022-08-29T20:28:24.664Z,2.17
2022-08-29T20:33:32.806Z,1.63
2022-08-29T20:38:39.842Z,2.08
2022-08-29T20:43:46.162Z,1.70
2022-08-29T20:48:53.819Z,1.50
2022-08-29T20:53:59.863Z,1.67
2022-08-29T20:59:07.426Z,1.20
2022-08-29T21:04:35.168Z,1.77
2022-08-29T21:09:43.652Z,1.02
2022-08-29T21:20:21.597Z,1.38
2022-08-29T21:25:28.335Z,1.67
2022-08-29T21:30:34.293Z,1.58
2022-08-29T21:35:42.762Z,1.35
2022-08-29T21:40:50.856Z,1.42
2022-08-29T21:45:57.063Z,1.52
2022-08-29T21:51:04.706Z,1.50
2022-08-29T21:56:10.746Z,3.13
2022-08-29T22:01:16.309Z,1.20
2022-08-29T22:06:23.976Z,1.48
2022-08-29T22:11:37.715Z,1.50
2022-08-29T22:16:44.499Z,1.35
2022-08-29T22:21:53.149Z,1.40
2022-08-29T22:32:03.964Z,1.50
2022-08-29T22:37:12.223Z,1.20
2022-08-29T22:42:18.288Z,1.48
2022-08-29T22:47:23.786Z,1.75
2022-08-29T22:52:30.842Z,1.23
2022-08-29T22:57:36.856Z,1.42
2022-08-29T23:02:43.109Z,1.30
2022-08-29T23:07:50.613Z,1.42
2022-08-29T23:12:56.764Z,1.33
2022-08-29T23:18:02.233Z,1.60
2022-08-29T23:23:09.201Z,1.67
2022-08-29T23:28:14.905Z,1.50
2022-08-29T23:33:20.739Z,1.92
2022-08-29T23:38:29.314Z,2.25
2022-08-29T23:43:36.713Z,1.70
2022-08-29T23:48:43.868Z,1.80
2022-08-29T23:53:51.632Z,1.60
2022-08-29T23:58:58.028Z,2.22
